Time;durP1;ratioP1;P1;durP2;ratioP2;P2;SDS_P1;SDS_P2;PMS_P1;PMS_P2;Temp;Humidity;BMP_temperature;BMP_pressure;BME280_temperature;BME280_humidity;BME280_pressure;Samples;Min_cycle;Max_cycle;Signal;HPM_P1;HPM_P2
2023/02/13 00:01:34;;;;;;;5.55;3.97;;;6.80;99.90;;;;;;5061655;28;20602;-72
2023/02/13 00:04:03;;;;;;;5.10;3.90;;;6.80;99.90;;;;;;5049844;28;20220;-72
2023/02/13 00:06:31;;;;;;;5.05;3.60;;;6.80;99.90;;;;;;5047041;28;20621;-72
2023/02/13 00:09:01;;;;;;;5.25;4.30;;;6.80;99.90;;;;;;5046087;28;20187;-73
2023/02/13 00:11:31;;;;;;;5.35;4.05;;;6.80;99.90;;;;;;5043765;28;20207;-72
2023/02/13 00:13:59;;;;;;;4.45;3.58;;;6.80;99.90;;;;;;5039985;28;20254;-72
2023/02/13 00:16:29;;;;;;;6.78;4.32;;;6.80;99.90;;;;;;5065290;28;20209;-72
2023/02/13 00:18:59;;;;;;;4.18;3.60;;;6.80;99.90;;;;;;5048135;28;20260;-72
2023/02/13 00:21:28;;;;;;;4.13;3.47;;;6.80;99.90;;;;;;5047694;28;20204;-72
2023/02/13 00:23:56;;;;;;;4.50;3.70;;;6.80;99.90;;;;;;5057822;28;20203;-72
2023/02/13 00:26:25;;;;;;;5.68;4.07;;;6.80;99.90;;;;;;5048471;28;20225;-72
2023/02/13 00:28:53;;;;;;;4.50;3.45;;;6.80;99.90;;;;;;5052652;28;20302;-72
2023/02/13 00:31:26;;;;;;;4.88;3.78;;;6.80;99.90;;;;;;5050668;28;20209;-72
2023/02/13 00:33:56;;;;;;;5.57;4.25;;;6.80;99.90;;;;;;5043792;28;20727;-72
2023/02/13 00:36:25;;;;;;;5.70;3.83;;;6.80;99.90;;;;;;5024886;28;20780;-72
2023/02/13 00:38:54;;;;;;;5.60;3.97;;;6.80;99.90;;;;;;5042269;28;20714;-72
2023/02/13 00:41:23;;;;;;;5.35;4.00;;;6.80;99.90;;;;;;5046633;28;20631;-72
2023/02/13 00:43:52;;;;;;;6.70;3.78;;;6.80;99.90;;;;;;5048239;28;20730;-72
2023/02/13 00:46:20;;;;;;;6.53;4.80;;;6.80;99.90;;;;;;5050110;28;20244;-72
2023/02/13 00:48:49;;;;;;;7.57;4.88;;;6.80;99.90;;;;;;5050975;28;20352;-72
2023/02/13 00:51:19;;;;;;;5.65;4.30;;;6.80;99.90;;;;;;5049324;28;20216;-72
2023/02/13 00:53:47;;;;;;;7.20;5.10;;;6.80;99.90;;;;;;5042956;28;20652;-72
2023/02/13 00:56:16;;;;;;;6.55;4.70;;;6.80;99.90;;;;;;5036009;28;20227;-72
2023/02/13 00:58:45;;;;;;;7.65;5.10;;;6.80;99.90;;;;;;5047132;28;20514;-72
2023/02/13 01:01:14;;;;;;;5.13;3.95;;;6.80;99.90;;;;;;5046952;28;20670;-72
2023/02/13 01:03:42;;;;;;;7.15;4.85;;;6.80;99.90;;;;;;5046953;28;20189;-72
2023/02/13 01:06:11;;;;;;;7.93;5.65;;;6.80;99.90;;;;;;5047032;28;20607;-72
2023/02/13 01:08:42;;;;;;;7.00;4.78;;;6.80;99.90;;;;;;5066324;28;20205;-72
2023/02/13 01:11:10;;;;;;;8.80;5.75;;;6.80;99.90;;;;;;5046617;28;20210;-72
2023/02/13 01:13:39;;;;;;;7.00;4.95;;;6.80;99.90;;;;;;5040736;28;20717;-72
2023/02/13 01:16:07;;;;;;;8.48;6.10;;;6.80;99.90;;;;;;5040627;28;20230;-72
2023/02/13 01:18:36;;;;;;;7.13;5.78;;;6.80;99.90;;;;;;5049571;28;20752;-72
2023/02/13 01:21:07;;;;;;;7.40;5.70;;;6.80;99.90;;;;;;5067301;28;20247;-72
2023/02/13 01:23:40;;;;;;;9.35;5.22;;;6.80;99.90;;;;;;5055867;28;20244;-72
2023/02/13 01:26:13;;;;;;;7.20;4.95;;;6.80;99.90;;;;;;5047888;28;20247;-72
2023/02/13 01:28:43;;;;;;;6.50;5.45;;;6.80;99.90;;;;;;5039897;28;20756;-72
2023/02/13 01:31:13;;;;;;;6.18;5.10;;;6.80;99.90;;;;;;5064667;28;20232;-72
2023/02/13 01:33:43;;;;;;;5.85;4.65;;;6.80;99.90;;;;;;5061885;28;20578;-72
2023/02/13 01:36:14;;;;;;;8.63;5.07;;;6.80;99.90;;;;;;5045201;28;20305;-72
2023/02/13 01:38:46;;;;;;;9.10;4.70;;;6.80;99.90;;;;;;5043941;28;20288;-72
2023/02/13 01:41:18;;;;;;;7.15;4.95;;;6.80;99.90;;;;;;5043656;28;20197;-72
2023/02/13 01:43:53;;;;;;;5.55;4.28;;;6.80;99.90;;;;;;5047344;28;20201;-72
2023/02/13 01:46:29;;;;;;;8.07;4.80;;;6.80;99.90;;;;;;5048471;28;20248;-72
2023/02/13 01:49:03;;;;;;;5.20;4.30;;;6.80;99.90;;;;;;5057327;28;20247;-72
2023/02/13 01:51:35;;;;;;;4.68;4.18;;;6.70;99.90;;;;;;5046656;28;20300;-72
2023/02/13 01:54:08;;;;;;;6.53;5.28;;;6.80;99.90;;;;;;5044723;28;20229;-72
2023/02/13 01:56:43;;;;;;;7.15;4.88;;;6.80;99.90;;;;;;5046528;28;20252;-72
2023/02/13 01:59:17;;;;;;;4.68;4.00;;;6.80;99.90;;;;;;5042617;28;20669;-72
2023/02/13 02:01:45;;;;;;;6.95;5.07;;;6.80;99.90;;;;;;5045727;28;20186;-72
2023/02/13 02:04:17;;;;;;;6.47;5.00;;;6.80;99.90;;;;;;5063956;28;20205;-72
2023/02/13 02:06:49;;;;;;;6.50;4.85;;;6.80;99.90;;;;;;5035415;28;20189;-72
2023/02/13 02:09:30;;;;;;;6.07;5.05;;;6.80;99.90;;;;;;5038244;28;20297;-72
2023/02/13 02:12:05;;;;;;;6.45;4.75;;;6.80;99.90;;;;;;5061416;28;20211;-72
2023/02/13 02:14:37;;;;;;;4.68;4.13;;;6.80;99.90;;;;;;5047890;28;20307;-72
2023/02/13 02:17:09;;;;;;;5.70;4.90;;;6.80;99.90;;;;;;5029544;28;20218;-72
2023/02/13 02:19:42;;;;;;;5.45;4.40;;;6.70;99.90;;;;;;5045227;28;20248;-72
2023/02/13 02:22:46;;;;;;;5.75;4.45;;;6.80;99.90;;;;;;5043232;28;20194;-72
2023/02/13 02:25:52;;;;;;;6.03;4.28;;;6.70;99.90;;;;;;5032326;28;20224;-72
2023/02/13 02:28:55;;;;;;;4.60;3.90;;;6.70;99.90;;;;;;5056753;28;20224;-72
2023/02/13 02:32:09;;;;;;;4.93;4.18;;;6.70;99.90;;;;;;5039875;28;20280;-72
2023/02/13 02:34:47;;;;;;;5.28;4.05;;;6.80;99.90;;;;;;5040738;28;20709;-72
2023/02/13 02:37:31;;;;;;;5.53;3.70;;;6.80;99.90;;;;;;5047649;28;20201;-72
2023/02/13 02:40:11;;;;;;;5.00;3.95;;;6.80;99.90;;;;;;5043911;28;20219;-72
2023/02/13 02:42:50;;;;;;;3.47;3.17;;;6.80;99.90;;;;;;5046623;28;20190;-72
2023/02/13 02:45:25;;;;;;;4.63;4.22;;;6.70;99.90;;;;;;5041095;28;20261;-72
2023/02/13 02:50:53;;;;;;;8.98;4.70;;;6.70;99.90;;;;;;5036604;28;20224;-72
2023/02/13 02:53:38;;;;;;;6.50;3.85;;;6.70;99.90;;;;;;5046733;28;20619;-72
2023/02/13 02:56:12;;;;;;;5.82;4.85;;;6.80;99.90;;;;;;5047370;28;20226;-72
2023/02/13 03:07:16;;;;;;;5.30;3.50;;;6.70;99.90;;;;;;5031005;28;20221;-72
2023/02/13 03:15:27;;;;;;;4.82;4.07;;;6.70;99.90;;;;;;5061581;28;20234;-72
2023/02/13 03:23:47;;;;;;;4.85;4.07;;;6.70;99.90;;;;;;5047329;28;20200;-72
2023/02/13 03:26:44;;;;;;;4.75;3.45;;;6.70;99.90;;;;;;5063494;28;20682;-72
2023/02/13 03:32:20;;;;;;;4.70;3.72;;;6.70;99.90;;;;;;5049480;28;20203;-72
2023/02/13 03:37:56;;;;;;;4.72;3.47;;;6.70;99.90;;;;;;5044980;28;20620;-72
2023/02/13 03:40:34;;;;;;;6.13;3.58;;;6.70;99.90;;;;;;5042630;28;20651;-72
2023/02/13 03:43:18;;;;;;;5.00;3.83;;;6.70;99.90;;;;;;5047776;28;20190;-72
2023/02/13 03:45:56;;;;;;;5.15;3.28;;;6.70;99.90;;;;;;5045686;28;20225;-72
2023/02/13 03:51:21;;;;;;;5.75;4.30;;;6.70;99.90;;;;;;5075397;28;20288;-72
2023/02/13 03:53:57;;;;;;;4.78;3.80;;;6.70;99.90;;;;;;5062494;28;20638;-72
2023/02/13 03:59:21;;;;;;;5.63;3.55;;;6.70;99.90;;;;;;5065831;28;20221;-72
2023/02/13 04:02:01;;;;;;;5.18;3.85;;;6.70;99.90;;;;;;5071548;28;20548;-72
2023/02/13 04:04:39;;;;;;;5.95;4.40;;;6.70;99.90;;;;;;5055198;28;20237;-72
2023/02/13 04:07:11;;;;;;;4.50;3.47;;;6.70;99.90;;;;;;5051352;28;20202;-72
2023/02/13 04:09:42;;;;;;;4.95;3.60;;;6.70;99.90;;;;;;5066882;28;20324;-72
2023/02/13 04:12:19;;;;;;;3.88;3.10;;;6.70;99.90;;;;;;5043668;28;20779;-72
2023/02/13 04:14:53;;;;;;;5.00;3.60;;;6.70;99.90;;;;;;5028162;28;20231;-72
2023/02/13 04:17:27;;;;;;;3.83;3.45;;;6.70;99.90;;;;;;5041443;28;20206;-72
2023/02/13 04:19:56;;;;;;;3.88;3.58;;;6.70;99.90;;;;;;5045991;28;20262;-72
2023/02/13 04:22:24;;;;;;;5.22;3.95;;;6.70;99.90;;;;;;5046843;28;20243;-72
2023/02/13 04:24:54;;;;;;;4.13;3.70;;;6.70;99.90;;;;;;5046694;28;20225;-72
2023/02/13 04:27:27;;;;;;;3.85;3.42;;;6.70;99.90;;;;;;5062671;28;20255;-72
2023/02/13 04:29:56;;;;;;;4.85;3.55;;;6.70;99.90;;;;;;5048191;28;20217;-72
2023/02/13 04:32:24;;;;;;;4.65;4.03;;;6.70;99.90;;;;;;5050179;28;20193;-72
2023/02/13 04:34:53;;;;;;;6.00;4.22;;;6.70;99.90;;;;;;5043218;28;20226;-72
2023/02/13 04:37:22;;;;;;;6.28;4.35;;;6.70;99.90;;;;;;5043296;28;20198;-72
2023/02/13 04:39:50;;;;;;;5.80;4.30;;;6.70;99.90;;;;;;5044758;28;20270;-72
2023/02/13 04:42:20;;;;;;;4.60;3.53;;;6.60;99.90;;;;;;5047124;28;20190;-72
2023/02/13 04:44:48;;;;;;;4.35;3.85;;;6.70;99.90;;;;;;5047470;28;20307;-72
2023/02/13 04:47:17;;;;;;;5.93;3.90;;;6.70;99.90;;;;;;5034181;28;20230;-72
2023/02/13 04:49:45;;;;;;;5.60;4.05;;;6.60;99.90;;;;;;5044777;28;20216;-72
2023/02/13 04:52:15;;;;;;;4.05;3.58;;;6.70;99.90;;;;;;5050068;28;20243;-72
2023/02/13 04:54:44;;;;;;;5.63;3.70;;;6.60;99.90;;;;;;5066366;28;20402;-72
2023/02/13 04:57:12;;;;;;;4.97;4.47;;;6.60;99.90;;;;;;5047994;28;20252;-72
2023/02/13 04:59:42;;;;;;;7.05;4.13;;;6.60;99.90;;;;;;5046405;28;20221;-72
2023/02/13 05:02:11;;;;;;;8.40;5.00;;;6.60;99.90;;;;;;5042329;28;20235;-72
2023/02/13 05:04:39;;;;;;;5.68;3.90;;;6.60;99.90;;;;;;5046256;28;20653;-72
2023/02/13 05:07:08;;;;;;;3.90;3.45;;;6.60;99.90;;;;;;5040448;28;20784;-72
2023/02/13 05:09:36;;;;;;;6.25;4.32;;;6.60;99.90;;;;;;5047245;28;20320;-72
2023/02/13 05:12:07;;;;;;;4.40;3.42;;;6.60;99.90;;;;;;5041049;28;20674;-72
2023/02/13 05:14:36;;;;;;;4.53;3.78;;;6.60;99.90;;;;;;5046435;28;20753;-72
2023/02/13 05:17:06;;;;;;;4.18;3.38;;;6.60;99.90;;;;;;5042703;28;20201;-72
2023/02/13 05:19:35;;;;;;;5.47;3.70;;;6.60;99.90;;;;;;5058270;28;20225;-72
2023/02/13 05:24:52;;;;;;;7.47;4.18;;;6.60;99.90;;;;;;5044224;28;20221;-72
2023/02/13 05:27:21;;;;;;;4.45;3.28;;;6.60;99.90;;;;;;5048837;28;20730;-72
2023/02/13 05:29:50;;;;;;;6.18;4.25;;;6.60;99.90;;;;;;5042839;28;20232;-72
2023/02/13 05:32:20;;;;;;;4.53;3.10;;;6.60;99.90;;;;;;5049362;28;20204;-72
2023/02/13 05:34:51;;;;;;;3.88;3.40;;;6.60;99.90;;;;;;5060921;28;20228;-72
2023/02/13 05:37:19;;;;;;;4.18;3.75;;;6.60;99.90;;;;;;5065105;28;20225;-72
2023/02/13 05:39:47;;;;;;;3.67;3.20;;;6.60;99.90;;;;;;5049087;28;20709;-72
2023/02/13 05:42:16;;;;;;;5.53;4.25;;;6.60;99.90;;;;;;5050136;28;20267;-72
2023/02/13 05:44:44;;;;;;;4.75;3.30;;;6.60;99.90;;;;;;5065989;28;20643;-72
2023/02/13 05:47:13;;;;;;;5.32;3.42;;;6.60;99.90;;;;;;5048203;28;20197;-72
2023/02/13 05:49:42;;;;;;;5.07;3.97;;;6.60;99.90;;;;;;5051573;28;20757;-72
2023/02/13 05:52:11;;;;;;;5.55;4.05;;;6.60;99.90;;;;;;5041260;28;20237;-72
2023/02/13 05:54:39;;;;;;;4.57;3.58;;;6.60;99.90;;;;;;5036893;28;20310;-72
2023/02/13 05:57:07;;;;;;;7.57;4.45;;;6.60;99.90;;;;;;5045925;28;20203;-72
2023/02/13 05:59:36;;;;;;;5.20;4.35;;;6.60;99.90;;;;;;5040536;28;20221;-72
2023/02/13 06:02:04;;;;;;;4.05;3.25;;;6.60;99.90;;;;;;5057183;28;20193;-72
2023/02/13 06:04:33;;;;;;;4.20;3.10;;;6.60;99.90;;;;;;5043530;28;20228;-72
2023/02/13 06:07:03;;;;;;;4.03;3.08;;;6.60;99.90;;;;;;5048762;28;20320;-72
2023/02/13 06:09:31;;;;;;;6.35;4.65;;;6.60;99.90;;;;;;5064386;28;20700;-72
2023/02/13 06:12:00;;;;;;;5.05;4.50;;;6.60;99.90;;;;;;5042397;28;20624;-72
2023/02/13 06:14:29;;;;;;;6.75;3.95;;;6.60;99.90;;;;;;5047369;28;20276;-72
2023/02/13 06:17:00;;;;;;;4.40;3.40;;;6.60;99.90;;;;;;5047011;28;20216;-72
2023/02/13 06:19:29;;;;;;;4.22;3.50;;;6.50;99.90;;;;;;5056988;28;20217;-72
2023/02/13 06:21:57;;;;;;;6.90;3.88;;;6.50;99.90;;;;;;5045349;28;20747;-72
2023/02/13 06:24:27;;;;;;;4.93;3.67;;;6.60;99.90;;;;;;5046080;28;20566;-72
2023/02/13 06:26:56;;;;;;;6.38;4.35;;;6.60;99.90;;;;;;5043440;28;20286;-72
2023/02/13 06:29:25;;;;;;;5.50;4.03;;;6.50;99.90;;;;;;5044123;28;20236;-72
2023/02/13 06:31:53;;;;;;;6.60;4.78;;;6.50;99.90;;;;;;5044888;28;20288;-72
2023/02/13 06:34:21;;;;;;;8.57;4.30;;;6.50;99.90;;;;;;5043504;28;20714;-72
2023/02/13 06:36:51;;;;;;;7.18;4.50;;;6.50;99.90;;;;;;5040717;28;20194;-72
2023/02/13 06:39:19;;;;;;;6.65;5.20;;;6.50;99.90;;;;;;5037488;28;20240;-72
2023/02/13 06:41:49;;;;;;;6.22;4.63;;;6.50;99.90;;;;;;5035833;28;20651;-72
2023/02/13 06:44:18;;;;;;;5.53;5.03;;;6.50;99.90;;;;;;5059037;28;20580;-72
2023/02/13 06:46:46;;;;;;;6.07;4.90;;;6.50;99.90;;;;;;5047918;28;20232;-72
2023/02/13 06:49:15;;;;;;;8.35;5.13;;;6.50;99.90;;;;;;5036374;28;20688;-72
2023/02/13 06:51:43;;;;;;;8.50;5.80;;;6.50;99.90;;;;;;5039246;28;20388;-72
2023/02/13 06:54:12;;;;;;;8.23;5.57;;;6.50;99.90;;;;;;5042171;28;20210;-72
2023/02/13 06:56:41;;;;;;;7.03;4.63;;;6.50;99.90;;;;;;5046009;28;20225;-72
2023/02/13 06:59:11;;;;;;;8.18;5.50;;;6.40;99.90;;;;;;5045509;28;20305;-72
2023/02/13 07:01:40;;;;;;;6.00;5.05;;;6.50;99.90;;;;;;5064254;28;20296;-72
2023/02/13 07:04:08;;;;;;;6.03;5.20;;;6.40;99.90;;;;;;5058648;28;20185;-72
2023/02/13 07:06:39;;;;;;;7.65;5.20;;;6.40;99.90;;;;;;5063639;28;20193;-72
2023/02/13 07:09:09;;;;;;;7.85;5.53;;;6.40;99.90;;;;;;5047510;28;20228;-72
2023/02/13 07:11:37;;;;;;;6.32;4.38;;;6.40;99.90;;;;;;5048205;28;20228;-72
2023/02/13 07:14:08;;;;;;;6.45;4.35;;;6.50;99.90;;;;;;5062626;28;20229;-72
2023/02/13 07:16:37;;;;;;;7.88;5.82;;;6.50;99.90;;;;;;5037979;28;20217;-72
2023/02/13 07:19:06;;;;;;;5.82;4.85;;;6.40;99.90;;;;;;5047013;28;20222;-72
2023/02/13 07:21:35;;;;;;;9.93;5.45;;;6.40;99.90;;;;;;5045580;28;20194;-72
2023/02/13 07:24:04;;;;;;;9.10;6.20;;;6.40;99.90;;;;;;5060615;28;20197;-72
2023/02/13 07:26:35;;;;;;;8.82;5.68;;;6.40;99.90;;;;;;5049979;28;20221;-71
2023/02/13 07:29:04;;;;;;;7.53;5.28;;;6.40;99.90;;;;;;5048287;28;20224;-72
2023/02/13 07:31:41;;;;;;;9.40;5.20;;;6.40;99.90;;;;;;5062352;28;20239;-72
2023/02/13 07:34:09;;;;;;;4.95;4.13;;;6.40;99.90;;;;;;5046227;28;20311;-72
2023/02/13 07:36:37;;;;;;;5.53;5.03;;;6.40;99.90;;;;;;5048714;28;21043;-72
2023/02/13 07:39:07;;;;;;;6.28;4.75;;;6.40;99.90;;;;;;5050338;28;20672;-72
2023/02/13 07:41:35;;;;;;;9.25;5.55;;;6.40;99.90;;;;;;5067770;28;20267;-72
2023/02/13 07:44:06;;;;;;;6.82;5.03;;;6.40;99.90;;;;;;5051329;28;20201;-72
2023/02/13 07:46:34;;;;;;;5.25;4.68;;;6.40;99.90;;;;;;5070898;28;20619;-72
2023/02/13 07:49:04;;;;;;;5.70;4.95;;;6.40;99.90;;;;;;5062679;28;20757;-72
2023/02/13 07:51:33;;;;;;;6.30;4.60;;;6.40;99.90;;;;;;5066106;28;21001;-72
2023/02/13 07:54:02;;;;;;;7.30;4.68;;;6.40;99.90;;;;;;5056918;28;20202;-69
2023/02/13 07:56:30;;;;;;;7.15;5.20;;;6.40;99.90;;;;;;5041788;28;20246;-69
2023/02/13 07:58:58;;;;;;;6.03;4.32;;;6.40;99.90;;;;;;5048741;28;20307;-69
2023/02/13 08:01:27;;;;;;;6.85;4.93;;;6.40;99.90;;;;;;5047967;28;20198;-69
2023/02/13 08:03:55;;;;;;;8.88;5.40;;;6.40;99.90;;;;;;5047084;28;20193;-69
2023/02/13 08:06:26;;;;;;;6.07;4.95;;;6.40;99.90;;;;;;5067666;28;20591;-72
2023/02/13 08:11:54;;;;;;;5.93;4.00;;;6.40;99.90;;;;;;5047303;28;20276;-72
2023/02/13 08:14:24;;;;;;;6.25;4.50;;;6.40;99.90;;;;;;5066629;28;20284;-73
2023/02/13 08:16:54;;;;;;;9.10;4.10;;;6.40;99.90;;;;;;5046884;28;20693;-72
2023/02/13 08:19:23;;;;;;;4.38;3.72;;;6.40;99.90;;;;;;5042179;28;20314;-73
2023/02/13 08:21:52;;;;;;;6.38;4.55;;;6.40;99.90;;;;;;5045966;28;20198;-72
2023/02/13 08:24:21;;;;;;;7.95;5.95;;;6.40;99.90;;;;;;5045587;28;20300;-73
2023/02/13 08:26:50;;;;;;;6.10;4.25;;;6.40;99.90;;;;;;5041681;28;20290;-73
2023/02/13 08:29:19;;;;;;;5.47;3.72;;;6.40;99.90;;;;;;5043270;28;20222;-73
2023/02/13 08:31:47;;;;;;;9.18;4.28;;;6.40;99.90;;;;;;5067855;28;20293;-72
2023/02/13 08:34:16;;;;;;;4.93;3.53;;;6.40;99.90;;;;;;5048336;28;20260;-69
2023/02/13 08:36:44;;;;;;;5.50;3.80;;;6.40;99.90;;;;;;5049197;28;20212;-69
2023/02/13 08:39:14;;;;;;;4.38;3.50;;;6.40;99.90;;;;;;5049032;28;20241;-69
2023/02/13 08:41:42;;;;;;;5.45;3.97;;;6.40;99.90;;;;;;5067850;28;21380;-69
2023/02/13 08:44:11;;;;;;;4.40;3.42;;;6.40;99.90;;;;;;5048719;28;20661;-69
2023/02/13 08:46:39;;;;;;;4.72;3.72;;;6.40;99.90;;;;;;5041418;28;20625;-69
2023/02/13 08:49:08;;;;;;;5.32;3.70;;;6.40;99.90;;;;;;5058463;28;20203;-72
2023/02/13 08:51:36;;;;;;;5.13;3.65;;;6.40;99.90;;;;;;5067642;28;20279;-72
2023/02/13 08:54:05;;;;;;;5.13;4.00;;;6.40;99.90;;;;;;5065880;28;20271;-72
2023/02/13 08:56:35;;;;;;;6.47;3.85;;;6.50;99.90;;;;;;5061356;28;20217;-72
2023/02/13 08:59:03;;;;;;;3.78;3.42;;;6.40;99.90;;;;;;5049841;28;20197;-72
2023/02/13 09:01:32;;;;;;;4.55;4.00;;;6.50;99.90;;;;;;5045929;28;20211;-72
2023/02/13 09:04:00;;;;;;;4.63;3.75;;;6.50;99.90;;;;;;5039092;28;20199;-72
2023/02/13 09:06:28;;;;;;;4.47;3.42;;;6.50;99.90;;;;;;5049193;28;20222;-72
2023/02/13 09:08:57;;;;;;;7.07;4.07;;;6.50;99.90;;;;;;5049122;28;20249;-72
2023/02/13 09:11:25;;;;;;;4.50;3.40;;;6.50;99.90;;;;;;5059176;28;20620;-72
2023/02/13 09:13:55;;;;;;;5.50;4.25;;;6.50;99.90;;;;;;5064715;28;21280;-73
2023/02/13 09:16:24;;;;;;;5.50;4.32;;;6.60;99.90;;;;;;5040580;28;20214;-73
2023/02/13 09:18:52;;;;;;;5.43;3.25;;;6.60;99.90;;;;;;5048137;28;20435;-73
2023/02/13 09:21:22;;;;;;;4.03;3.40;;;6.60;99.90;;;;;;5047510;28;20290;-73
2023/02/13 09:23:51;;;;;;;5.28;4.03;;;6.60;99.90;;;;;;5057639;28;20193;-72
2023/02/13 09:26:20;;;;;;;4.20;3.50;;;6.60;99.90;;;;;;5038091;28;20303;-72
2023/02/13 09:28:48;;;;;;;4.13;3.72;;;6.60;99.90;;;;;;5044618;28;20313;-72
2023/02/13 09:31:20;;;;;;;4.63;3.20;;;6.60;99.90;;;;;;5050423;28;20630;-72
2023/02/13 09:33:49;;;;;;;4.47;3.72;;;6.60;99.90;;;;;;5052091;28;20200;-72
2023/02/13 09:36:20;;;;;;;5.28;3.63;;;6.60;99.90;;;;;;5061188;28;20729;-72
2023/02/13 09:38:52;;;;;;;4.90;3.63;;;6.60;99.90;;;;;;5048352;28;20197;-72
2023/02/13 09:41:23;;;;;;;4.70;3.45;;;6.60;99.90;;;;;;5048347;28;20197;-72
2023/02/13 09:43:54;;;;;;;4.80;3.55;;;6.60;99.90;;;;;;5054788;28;20336;-72
2023/02/13 09:46:29;;;;;;;4.32;3.70;;;6.60;99.90;;;;;;5065134;28;20298;-72
2023/02/13 09:49:02;;;;;;;5.35;4.15;;;6.60;99.90;;;;;;5057990;28;20197;-72
2023/02/13 09:51:30;;;;;;;4.30;3.60;;;6.60;99.90;;;;;;5046455;28;20671;-72
2023/02/13 09:54:02;;;;;;;5.25;3.42;;;6.60;99.90;;;;;;5062273;28;20195;-72
2023/02/13 09:56:40;;;;;;;4.35;3.15;;;6.60;99.90;;;;;;5042774;28;20249;-73
2023/02/13 09:59:22;;;;;;;6.72;4.68;;;6.70;99.90;;;;;;5041489;28;20653;-72
2023/02/13 10:01:55;;;;;;;4.90;3.70;;;6.70;99.90;;;;;;5044201;28;20614;-72
2023/02/13 10:04:31;;;;;;;4.65;3.53;;;6.70;99.90;;;;;;5042000;28;20559;-72
2023/02/13 10:07:13;;;;;;;4.85;3.45;;;6.60;99.90;;;;;;5047943;28;20195;-72
2023/02/13 10:09:52;;;;;;;4.95;3.03;;;6.70;99.90;;;;;;5046315;28;20778;-73
2023/02/13 10:12:28;;;;;;;3.00;2.60;;;6.70;99.90;;;;;;5041507;28;20204;-72
2023/02/13 10:15:10;;;;;;;4.68;3.42;;;6.70;99.90;;;;;;5040122;28;20255;-72
2023/02/13 10:17:44;;;;;;;5.10;3.67;;;6.60;99.90;;;;;;5045965;28;20759;-72
2023/02/13 10:20:28;;;;;;;5.35;3.20;;;6.70;99.90;;;;;;5059488;28;20228;-72
2023/02/13 10:23:00;;;;;;;5.60;3.45;;;6.70;99.90;;;;;;5043200;28;20640;-72
2023/02/13 10:25:35;;;;;;;4.30;3.53;;;6.60;99.90;;;;;;5035856;28;20303;-72
2023/02/13 10:28:12;;;;;;;4.25;3.13;;;6.60;99.90;;;;;;5044400;28;20203;-72
2023/02/13 10:30:49;;;;;;;5.15;4.13;;;6.60;99.90;;;;;;5065582;28;20303;-72
2023/02/13 10:33:23;;;;;;;5.50;3.55;;;6.70;99.90;;;;;;5044960;28;20284;-69
2023/02/13 10:35:58;;;;;;;4.05;3.25;;;6.60;99.90;;;;;;5038628;28;20240;-69
2023/02/13 10:38:30;;;;;;;4.53;3.25;;;6.60;99.90;;;;;;5065274;28;20728;-69
2023/02/13 10:41:20;;;;;;;4.50;3.50;;;6.60;99.90;;;;;;5043417;28;20278;-69
2023/02/13 10:44:00;;;;;;;4.13;3.13;;;6.60;99.90;;;;;;5065861;28;20217;-69
2023/02/13 10:46:37;;;;;;;6.13;3.72;;;6.60;99.90;;;;;;5064504;28;20243;-69
2023/02/13 10:49:25;;;;;;;5.15;3.42;;;6.60;99.90;;;;;;5037875;28;20212;-69
2023/02/13 10:52:03;;;;;;;4.75;4.00;;;6.60;99.90;;;;;;5044971;28;20670;-69
2023/02/13 10:54:51;;;;;;;3.53;2.75;;;6.60;99.90;;;;;;5041187;28;20285;-69
2023/02/13 10:57:25;;;;;;;4.90;3.90;;;6.60;99.90;;;;;;5060100;28;20217;-69
2023/02/13 11:00:04;;;;;;;4.07;3.42;;;6.60;99.90;;;;;;5044137;28;20217;-69
2023/02/13 11:02:35;;;;;;;5.07;3.40;;;6.60;99.90;;;;;;5059458;28;20227;-69
2023/02/13 11:05:15;;;;;;;6.93;3.55;;;6.60;99.90;;;;;;5061501;28;20287;-69
2023/02/13 11:07:46;;;;;;;3.95;3.28;;;6.70;99.90;;;;;;5060795;28;20221;-69
2023/02/13 11:10:17;;;;;;;5.00;3.40;;;6.70;99.90;;;;;;5064346;28;20236;-69
2023/02/13 11:12:46;;;;;;;5.93;3.58;;;6.60;99.90;;;;;;5030435;28;20212;-69
2023/02/13 11:15:24;;;;;;;3.70;2.95;;;6.60;99.90;;;;;;5043607;28;20221;-69
2023/02/13 11:17:55;;;;;;;4.70;2.65;;;6.60;99.90;;;;;;5032279;28;20225;-69
2023/02/13 11:20:30;;;;;;;5.10;2.95;;;6.60;99.90;;;;;;5042628;28;20217;-69
2023/02/13 11:23:24;;;;;;;3.70;3.40;;;6.60;99.90;;;;;;5065194;28;20683;-69
2023/02/13 11:25:59;;;;;;;2.83;2.47;;;6.60;99.90;;;;;;5057382;28;20288;-69
2023/02/13 11:28:29;;;;;;;3.75;3.35;;;6.70;99.90;;;;;;5042613;28;20263;-69
2023/02/13 11:31:14;;;;;;;4.18;3.05;;;6.60;99.90;;;;;;5043544;28;20190;-69
2023/02/13 11:33:43;;;;;;;3.53;3.20;;;6.60;99.90;;;;;;5038534;28;20294;-72
2023/02/13 11:36:15;;;;;;;4.45;3.30;;;6.60;99.90;;;;;;5038862;28;20225;-72
2023/02/13 11:38:44;;;;;;;4.13;3.17;;;6.60;99.90;;;;;;5044903;28;20573;-72
2023/02/13 11:41:16;;;;;;;4.28;2.78;;;6.60;99.90;;;;;;5043337;28;20870;-72
2023/02/13 11:43:48;;;;;;;3.15;2.85;;;6.60;99.90;;;;;;5046025;28;20316;-72
2023/02/13 11:46:20;;;;;;;3.38;3.08;;;6.60;99.90;;;;;;5069833;28;20576;-72
2023/02/13 11:49:00;;;;;;;3.15;2.80;;;6.60;99.90;;;;;;5054367;28;20193;-72
2023/02/13 11:51:39;;;;;;;4.30;3.10;;;6.60;99.90;;;;;;5046612;28;20192;-69
2023/02/13 11:54:23;;;;;;;3.25;2.92;;;6.60;99.90;;;;;;5045550;28;20235;-69
2023/02/13 11:56:53;;;;;;;3.65;2.90;;;6.60;99.90;;;;;;5059301;28;20575;-69
2023/02/13 11:59:41;;;;;;;4.50;2.70;;;6.60;99.90;;;;;;5037790;28;20213;-69
2023/02/13 12:02:16;;;;;;;5.20;3.53;;;6.60;99.90;;;;;;5046527;28;20463;-69
2023/02/13 12:04:46;;;;;;;3.95;2.60;;;6.60;99.90;;;;;;5044284;28;20252;-69
2023/02/13 12:07:22;;;;;;;4.03;2.60;;;6.60;99.90;;;;;;5066027;28;20213;-69
2023/02/13 12:09:55;;;;;;;4.32;3.20;;;6.60;99.90;;;;;;5064664;28;20398;-69
2023/02/13 12:12:29;;;;;;;4.20;3.33;;;6.70;99.90;;;;;;5046032;28;20202;-69
2023/02/13 12:15:01;;;;;;;3.97;2.85;;;6.60;99.90;;;;;;5061693;28;20707;-69
2023/02/13 12:17:31;;;;;;;3.30;2.70;;;6.70;99.90;;;;;;5041459;28;20255;-69
2023/02/13 12:20:01;;;;;;;3.33;2.47;;;6.60;99.90;;;;;;5045704;28;20296;-69
2023/02/13 12:22:44;;;;;;;3.80;2.90;;;6.60;99.90;;;;;;5069048;28;20733;-69
2023/02/13 12:25:31;;;;;;;4.60;3.40;;;6.60;99.90;;;;;;5064536;28;20805;-69
2023/02/13 12:28:13;;;;;;;3.63;2.55;;;6.70;99.90;;;;;;5066908;28;20214;-69
2023/02/13 12:30:55;;;;;;;3.97;3.15;;;6.60;99.90;;;;;;5048656;28;20218;-69
2023/02/13 12:33:38;;;;;;;3.45;2.70;;;6.60;99.90;;;;;;5061766;28;20195;-69
2023/02/13 12:36:14;;;;;;;3.08;2.78;;;6.70;99.90;;;;;;5047548;28;20232;-69
2023/02/13 12:38:58;;;;;;;2.83;2.63;;;6.60;99.90;;;;;;5045687;28;20598;-68
2023/02/13 12:41:32;;;;;;;3.22;2.40;;;6.60;99.90;;;;;;5060740;28;20212;-69
2023/02/13 12:44:31;;;;;;;4.80;2.75;;;6.70;99.90;;;;;;5065138;28;20213;-69
2023/02/13 12:47:10;;;;;;;3.15;2.78;;;6.60;99.90;;;;;;5060591;28;20683;-69
2023/02/13 12:49:59;;;;;;;3.40;2.53;;;6.70;99.90;;;;;;5040352;28;20260;-69
2023/02/13 12:52:40;;;;;;;3.25;2.45;;;6.70;99.90;;;;;;5067065;28;20691;-69
2023/02/13 12:55:28;;;;;;;3.22;2.50;;;6.70;99.90;;;;;;5066454;28;20322;-69
2023/02/13 12:58:15;;;;;;;6.10;2.88;;;6.70;99.90;;;;;;5040396;28;20644;-69
2023/02/13 13:00:54;;;;;;;3.75;2.60;;;6.70;99.90;;;;;;5044543;28;20226;-68
2023/02/13 13:03:33;;;;;;;3.03;2.70;;;6.70;99.90;;;;;;5057874;28;20201;-69
2023/02/13 13:06:18;;;;;;;3.20;2.17;;;6.70;99.90;;;;;;5057547;28;20210;-69
2023/02/13 13:09:14;;;;;;;5.68;2.75;;;6.70;99.90;;;;;;5062020;28;20186;-69
2023/02/13 13:12:03;;;;;;;2.92;2.30;;;6.70;99.90;;;;;;5038832;28;20708;-69
2023/02/13 13:14:38;;;;;;;3.33;2.45;;;6.70;99.90;;;;;;5041034;28;20377;-69
2023/02/13 13:17:18;;;;;;;3.60;2.35;;;6.70;99.90;;;;;;5066869;28;20280;-69
2023/02/13 13:19:55;;;;;;;3.95;2.83;;;6.70;99.90;;;;;;5042029;28;20226;-69
2023/02/13 13:22:29;;;;;;;3.85;2.63;;;6.70;99.90;;;;;;5067156;28;20201;-69
2023/02/13 13:25:08;;;;;;;3.88;2.67;;;6.70;99.90;;;;;;5047334;28;20237;-69
2023/02/13 13:27:43;;;;;;;2.60;2.17;;;6.70;99.90;;;;;;5064319;28;20218;-69
2023/02/13 13:30:20;;;;;;;2.25;1.88;;;6.80;99.90;;;;;;5061594;28;20843;-69
2023/02/13 13:32:54;;;;;;;2.78;2.38;;;6.80;99.90;;;;;;5025890;28;20244;-69
2023/02/13 13:35:23;;;;;;;2.40;2.20;;;6.80;99.90;;;;;;5036455;28;20590;-69
2023/02/13 13:38:02;;;;;;;2.53;2.25;;;6.70;99.90;;;;;;5056749;28;20209;-69
2023/02/13 13:40:39;;;;;;;2.55;1.90;;;6.80;99.90;;;;;;5061428;28;20222;-69
2023/02/13 13:43:19;;;;;;;2.78;2.00;;;6.80;99.90;;;;;;5064145;28;20194;-69
2023/02/13 13:45:57;;;;;;;3.78;2.72;;;6.80;99.90;;;;;;5066303;28;20225;-69
2023/02/13 13:48:39;;;;;;;2.38;2.13;;;6.80;99.90;;;;;;5059985;28;20243;-69
2023/02/13 13:51:10;;;;;;;3.08;2.17;;;6.80;99.90;;;;;;5054697;28;20304;-69
2023/02/13 13:54:23;;;;;;;2.28;2.05;;;6.80;99.90;;;;;;5060401;28;20585;-69
2023/02/13 13:57:11;;;;;;;3.35;2.25;;;6.80;99.90;;;;;;5062143;28;20217;-69
2023/02/13 14:00:29;;;;;;;2.15;1.85;;;6.80;99.90;;;;;;5043620;28;20240;-69
2023/02/13 14:03:23;;;;;;;3.22;2.20;;;6.80;99.90;;;;;;5043799;28;20198;-70
2023/02/13 14:06:00;;;;;;;3.28;2.63;;;6.80;99.90;;;;;;5053974;28;20315;-69
2023/02/13 14:08:59;;;;;;;3.22;2.38;;;6.80;99.90;;;;;;5047579;28;20197;-69
2023/02/13 14:11:31;;;;;;;3.20;1.95;;;6.80;99.90;;;;;;5047063;28;20321;-69